RJDB(METAR)
05/22 00:00
METAR RJDB 211500Z AUTO 22004KT 5000 BR NCD 19/18 Q1007 RMK A2976=
戻る
トップページへ戻る
IMOC Co,.Ltd.